sensor_id;sensor_type;location;lat;lon;timestamp;P1;durP1;ratioP1;P2;durP2;ratioP2
6424;SDS011;12193;42.642;23.384;2023-02-15T00:01:19;46.07;;;20.23;;
6424;SDS011;12193;42.642;23.384;2023-02-15T00:03:51;39.03;;;18.63;;
6424;SDS011;12193;42.642;23.384;2023-02-15T00:06:20;43.27;;;19.43;;
6424;SDS011;12193;42.642;23.384;2023-02-15T00:08:50;42.43;;;20.73;;
6424;SDS011;12193;42.642;23.384;2023-02-15T00:11:19;45.93;;;21.23;;
6424;SDS011;12193;42.642;23.384;2023-02-15T00:14:05;45.57;;;21.37;;
6424;SDS011;12193;42.642;23.384;2023-02-15T00:16:36;43.77;;;21.13;;
6424;SDS011;12193;42.642;23.384;2023-02-15T00:19:09;42.83;;;19.37;;
6424;SDS011;12193;42.642;23.384;2023-02-15T00:21:39;42.63;;;20.57;;
6424;SDS011;12193;42.642;23.384;2023-02-15T00:24:09;41.17;;;19.73;;
6424;SDS011;12193;42.642;23.384;2023-02-15T00:26:41;42.17;;;19.57;;
6424;SDS011;12193;42.642;23.384;2023-02-15T00:29:12;44.30;;;20.63;;
6424;SDS011;12193;42.642;23.384;2023-02-15T00:31:43;44.57;;;20.97;;
6424;SDS011;12193;42.642;23.384;2023-02-15T00:34:16;43.47;;;19.93;;
6424;SDS011;12193;42.642;23.384;2023-02-15T00:36:46;45.20;;;20.30;;
6424;SDS011;12193;42.642;23.384;2023-02-15T00:39:16;43.30;;;20.90;;
6424;SDS011;12193;42.642;23.384;2023-02-15T00:41:47;46.70;;;20.73;;
6424;SDS011;12193;42.642;23.384;2023-02-15T00:44:16;44.17;;;20.33;;
6424;SDS011;12193;42.642;23.384;2023-02-15T00:46:46;43.13;;;20.00;;
6424;SDS011;12193;42.642;23.384;2023-02-15T00:49:18;43.10;;;20.97;;
6424;SDS011;12193;42.642;23.384;2023-02-15T00:51:47;42.10;;;20.47;;
6424;SDS011;12193;42.642;23.384;2023-02-15T00:54:17;42.30;;;20.63;;
6424;SDS011;12193;42.642;23.384;2023-02-15T00:56:47;44.67;;;20.80;;
6424;SDS011;12193;42.642;23.384;2023-02-15T00:59:16;41.73;;;19.93;;
6424;SDS011;12193;42.642;23.384;2023-02-15T01:01:45;43.63;;;20.20;;
6424;SDS011;12193;42.642;23.384;2023-02-15T01:04:18;44.37;;;20.07;;
6424;SDS011;12193;42.642;23.384;2023-02-15T04:08:48;34.77;;;18.37;;
6424;SDS011;12193;42.642;23.384;2023-02-15T04:11:35;35.37;;;17.17;;
6424;SDS011;12193;42.642;23.384;2023-02-15T04:14:05;34.57;;;17.03;;
6424;SDS011;12193;42.642;23.384;2023-02-15T04:16:47;35.53;;;16.80;;
6424;SDS011;12193;42.642;23.384;2023-02-15T04:19:16;35.67;;;17.37;;
6424;SDS011;12193;42.642;23.384;2023-02-15T04:21:57;33.73;;;16.50;;
6424;SDS011;12193;42.642;23.384;2023-02-15T04:24:41;34.40;;;16.87;;
6424;SDS011;12193;42.642;23.384;2023-02-15T04:27:23;35.50;;;17.17;;
6424;SDS011;12193;42.642;23.384;2023-02-15T04:29:53;32.47;;;16.43;;
6424;SDS011;12193;42.642;23.384;2023-02-15T04:32:22;37.27;;;17.20;;
6424;SDS011;12193;42.642;23.384;2023-02-15T04:34:52;35.30;;;17.23;;
6424;SDS011;12193;42.642;23.384;2023-02-15T04:37:21;35.83;;;17.07;;
6424;SDS011;12193;42.642;23.384;2023-02-15T04:39:54;38.23;;;17.63;;
6424;SDS011;12193;42.642;23.384;2023-02-15T04:42:24;34.23;;;17.07;;
6424;SDS011;12193;42.642;23.384;2023-02-15T04:44:53;39.60;;;17.53;;
6424;SDS011;12193;42.642;23.384;2023-02-15T04:47:23;36.53;;;17.40;;
6424;SDS011;12193;42.642;23.384;2023-02-15T04:49:52;36.90;;;17.73;;
6424;SDS011;12193;42.642;23.384;2023-02-15T04:52:22;36.13;;;17.37;;
6424;SDS011;12193;42.642;23.384;2023-02-15T04:54:53;35.47;;;17.70;;
6424;SDS011;12193;42.642;23.384;2023-02-15T04:57:23;36.70;;;18.33;;
6424;SDS011;12193;42.642;23.384;2023-02-15T04:59:52;35.77;;;16.87;;
6424;SDS011;12193;42.642;23.384;2023-02-15T05:02:22;36.57;;;17.17;;
6424;SDS011;12193;42.642;23.384;2023-02-15T05:04:52;35.83;;;17.33;;
6424;SDS011;12193;42.642;23.384;2023-02-15T05:07:21;34.90;;;17.37;;
6424;SDS011;12193;42.642;23.384;2023-02-15T05:09:50;35.73;;;17.07;;
6424;SDS011;12193;42.642;23.384;2023-02-15T05:12:22;35.77;;;17.33;;
6424;SDS011;12193;42.642;23.384;2023-02-15T05:14:51;37.37;;;17.53;;
6424;SDS011;12193;42.642;23.384;2023-02-15T05:17:21;37.83;;;17.90;;
6424;SDS011;12193;42.642;23.384;2023-02-15T05:19:50;35.87;;;16.53;;
6424;SDS011;12193;42.642;23.384;2023-02-15T05:22:19;37.70;;;17.27;;
6424;SDS011;12193;42.642;23.384;2023-02-15T05:24:49;36.70;;;17.50;;
6424;SDS011;12193;42.642;23.384;2023-02-15T05:27:33;38.43;;;18.17;;
6424;SDS011;12193;42.642;23.384;2023-02-15T05:30:14;38.43;;;17.63;;
6424;SDS011;12193;42.642;23.384;2023-02-15T05:32:44;31.93;;;16.10;;
6424;SDS011;12193;42.642;23.384;2023-02-15T05:35:13;38.40;;;17.07;;
6424;SDS011;12193;42.642;23.384;2023-02-15T05:37:44;34.53;;;16.63;;
6424;SDS011;12193;42.642;23.384;2023-02-15T05:40:13;36.83;;;17.40;;
6424;SDS011;12193;42.642;23.384;2023-02-15T05:42:45;35.73;;;17.70;;
6424;SDS011;12193;42.642;23.384;2023-02-15T05:45:15;39.17;;;17.53;;
6424;SDS011;12193;42.642;23.384;2023-02-15T05:47:44;37.87;;;17.13;;
6424;SDS011;12193;42.642;23.384;2023-02-15T05:50:14;37.93;;;17.10;;
6424;SDS011;12193;42.642;23.384;2023-02-15T05:52:43;34.40;;;16.80;;
6424;SDS011;12193;42.642;23.384;2023-02-15T05:55:13;33.80;;;16.40;;
6424;SDS011;12193;42.642;23.384;2023-02-15T05:57:45;35.43;;;17.10;;
6424;SDS011;12193;42.642;23.384;2023-02-15T06:00:15;34.50;;;17.07;;
6424;SDS011;12193;42.642;23.384;2023-02-15T06:02:45;39.47;;;17.70;;
6424;SDS011;12193;42.642;23.384;2023-02-15T06:05:14;35.00;;;16.80;;
6424;SDS011;12193;42.642;23.384;2023-02-15T06:07:43;34.20;;;16.90;;
6424;SDS011;12193;42.642;23.384;2023-02-15T06:10:13;34.47;;;16.93;;
6424;SDS011;12193;42.642;23.384;2023-02-15T06:12:46;36.00;;;17.50;;
6424;SDS011;12193;42.642;23.384;2023-02-15T06:15:15;34.47;;;17.13;;
6424;SDS011;12193;42.642;23.384;2023-02-15T06:17:44;34.10;;;16.67;;
6424;SDS011;12193;42.642;23.384;2023-02-15T06:20:14;34.10;;;16.07;;
6424;SDS011;12193;42.642;23.384;2023-02-15T06:22:43;35.07;;;17.17;;
6424;SDS011;12193;42.642;23.384;2023-02-15T06:25:13;32.77;;;16.50;;
6424;SDS011;12193;42.642;23.384;2023-02-15T06:27:42;34.97;;;16.90;;
6424;SDS011;12193;42.642;23.384;2023-02-15T06:30:14;34.90;;;16.83;;
6424;SDS011;12193;42.642;23.384;2023-02-15T06:32:44;34.33;;;16.20;;
6424;SDS011;12193;42.642;23.384;2023-02-15T06:35:13;34.17;;;16.90;;
6424;SDS011;12193;42.642;23.384;2023-02-15T06:37:44;34.97;;;17.10;;
6424;SDS011;12193;42.642;23.384;2023-02-15T06:40:14;34.70;;;15.47;;
6424;SDS011;12193;42.642;23.384;2023-02-15T06:42:43;35.63;;;16.90;;
6424;SDS011;12193;42.642;23.384;2023-02-15T06:45:15;31.47;;;15.40;;
6424;SDS011;12193;42.642;23.384;2023-02-15T06:47:45;33.40;;;16.80;;
6424;SDS011;12193;42.642;23.384;2023-02-15T06:50:14;88.83;;;28.30;;
6424;SDS011;12193;42.642;23.384;2023-02-15T06:52:43;40.50;;;17.93;;
6424;SDS011;12193;42.642;23.384;2023-02-15T06:55:13;31.43;;;16.57;;
6424;SDS011;12193;42.642;23.384;2023-02-15T06:57:42;32.67;;;15.30;;
6424;SDS011;12193;42.642;23.384;2023-02-15T07:00:12;34.67;;;15.20;;
6424;SDS011;12193;42.642;23.384;2023-02-15T07:02:48;28.93;;;13.63;;
6424;SDS011;12193;42.642;23.384;2023-02-15T07:05:21;25.47;;;13.77;;
6424;SDS011;12193;42.642;23.384;2023-02-15T07:07:51;26.33;;;13.57;;
6424;SDS011;12193;42.642;23.384;2023-02-15T07:10:20;24.27;;;13.97;;
6424;SDS011;12193;42.642;23.384;2023-02-15T07:12:50;22.53;;;12.33;;
6424;SDS011;12193;42.642;23.384;2023-02-15T07:15:19;27.17;;;13.73;;
6424;SDS011;12193;42.642;23.384;2023-02-15T07:17:49;23.63;;;12.77;;
6424;SDS011;12193;42.642;23.384;2023-02-15T07:20:19;23.77;;;13.43;;
6424;SDS011;12193;42.642;23.384;2023-02-15T07:22:50;25.93;;;13.30;;
6424;SDS011;12193;42.642;23.384;2023-02-15T07:25:20;23.47;;;13.50;;
6424;SDS011;12193;42.642;23.384;2023-02-15T07:27:54;24.13;;;13.73;;
6424;SDS011;12193;42.642;23.384;2023-02-15T07:30:27;24.23;;;12.47;;
6424;SDS011;12193;42.642;23.384;2023-02-15T07:32:57;22.17;;;13.33;;
6424;SDS011;12193;42.642;23.384;2023-02-15T07:35:45;23.60;;;12.70;;
6424;SDS011;12193;42.642;23.384;2023-02-15T07:38:15;22.07;;;12.37;;
6424;SDS011;12193;42.642;23.384;2023-02-15T07:40:45;22.20;;;12.17;;
6424;SDS011;12193;42.642;23.384;2023-02-15T07:43:14;22.93;;;12.23;;
6424;SDS011;12193;42.642;23.384;2023-02-15T07:45:46;23.43;;;12.70;;
6424;SDS011;12193;42.642;23.384;2023-02-15T07:48:16;20.20;;;11.73;;
6424;SDS011;12193;42.642;23.384;2023-02-15T07:50:45;23.23;;;12.00;;
6424;SDS011;12193;42.642;23.384;2023-02-15T07:53:14;22.27;;;12.73;;
6424;SDS011;12193;42.642;23.384;2023-02-15T07:55:44;21.57;;;12.13;;
6424;SDS011;12193;42.642;23.384;2023-02-15T07:58:13;24.03;;;12.20;;
6424;SDS011;12193;42.642;23.384;2023-02-15T08:00:42;22.63;;;12.47;;
6424;SDS011;12193;42.642;23.384;2023-02-15T08:03:29;22.33;;;12.87;;
6424;SDS011;12193;42.642;23.384;2023-02-15T08:05:59;22.67;;;11.67;;
6424;SDS011;12193;42.642;23.384;2023-02-15T08:08:28;22.97;;;12.33;;
6424;SDS011;12193;42.642;23.384;2023-02-15T08:11:02;22.93;;;12.13;;
6424;SDS011;12193;42.642;23.384;2023-02-15T08:13:44;25.70;;;13.03;;
6424;SDS011;12193;42.642;23.384;2023-02-15T08:16:25;28.40;;;12.93;;
6424;SDS011;12193;42.642;23.384;2023-02-15T08:18:57;26.17;;;13.10;;
6424;SDS011;12193;42.642;23.384;2023-02-15T08:21:28;24.70;;;13.50;;
6424;SDS011;12193;42.642;23.384;2023-02-15T08:23:58;27.50;;;12.80;;
6424;SDS011;12193;42.642;23.384;2023-02-15T08:26:28;28.10;;;13.77;;
6424;SDS011;12193;42.642;23.384;2023-02-15T08:28:59;25.97;;;13.27;;
6424;SDS011;12193;42.642;23.384;2023-02-15T08:31:32;24.67;;;13.00;;
6424;SDS011;12193;42.642;23.384;2023-02-15T08:34:03;26.43;;;13.60;;
6424;SDS011;12193;42.642;23.384;2023-02-15T08:36:33;26.43;;;13.70;;
6424;SDS011;12193;42.642;23.384;2023-02-15T08:39:03;25.27;;;12.50;;
6424;SDS011;12193;42.642;23.384;2023-02-15T08:41:35;22.87;;;12.20;;
6424;SDS011;12193;42.642;23.384;2023-02-15T08:44:07;24.37;;;13.00;;
6424;SDS011;12193;42.642;23.384;2023-02-15T08:46:40;19.53;;;11.27;;
6424;SDS011;12193;42.642;23.384;2023-02-15T08:49:11;20.43;;;11.27;;
6424;SDS011;12193;42.642;23.384;2023-02-15T08:51:42;21.03;;;12.27;;
6424;SDS011;12193;42.642;23.384;2023-02-15T08:54:12;23.80;;;12.57;;
6424;SDS011;12193;42.642;23.384;2023-02-15T08:56:43;21.33;;;12.00;;
6424;SDS011;12193;42.642;23.384;2023-02-15T08:59:14;20.80;;;12.07;;
6424;SDS011;12193;42.642;23.384;2023-02-15T09:01:48;20.50;;;11.97;;
6424;SDS011;12193;42.642;23.384;2023-02-15T09:04:19;21.53;;;12.13;;
6424;SDS011;12193;42.642;23.384;2023-02-15T09:06:49;26.20;;;12.70;;
6424;SDS011;12193;42.642;23.384;2023-02-15T09:09:19;29.27;;;12.80;;
6424;SDS011;12193;42.642;23.384;2023-02-15T09:11:49;21.27;;;12.23;;
6424;SDS011;12193;42.642;23.384;2023-02-15T09:14:20;19.57;;;11.83;;
6424;SDS011;12193;42.642;23.384;2023-02-15T09:16:53;26.10;;;12.80;;
6424;SDS011;12193;42.642;23.384;2023-02-15T09:19:24;20.60;;;11.73;;
6424;SDS011;12193;42.642;23.384;2023-02-15T09:21:54;23.37;;;12.37;;
6424;SDS011;12193;42.642;23.384;2023-02-15T09:24:24;22.27;;;11.83;;
6424;SDS011;12193;42.642;23.384;2023-02-15T09:26:53;23.87;;;12.23;;
6424;SDS011;12193;42.642;23.384;2023-02-15T09:29:23;22.80;;;12.23;;
6424;SDS011;12193;42.642;23.384;2023-02-15T09:31:55;18.73;;;11.10;;
6424;SDS011;12193;42.642;23.384;2023-02-15T09:34:24;21.40;;;12.40;;
6424;SDS011;12193;42.642;23.384;2023-02-15T09:36:54;24.40;;;11.70;;
6424;SDS011;12193;42.642;23.384;2023-02-15T09:39:23;21.43;;;11.57;;
6424;SDS011;12193;42.642;23.384;2023-02-15T09:45:12;21.80;;;11.83;;
6424;SDS011;12193;42.642;23.384;2023-02-15T09:48:07;22.63;;;12.70;;
6424;SDS011;12193;42.642;23.384;2023-02-15T09:50:55;21.40;;;12.40;;
6424;SDS011;12193;42.642;23.384;2023-02-15T09:53:35;19.60;;;11.43;;
6424;SDS011;12193;42.642;23.384;2023-02-15T09:56:18;24.33;;;11.40;;
6424;SDS011;12193;42.642;23.384;2023-02-15T09:58:59;19.67;;;11.33;;
6424;SDS011;12193;42.642;23.384;2023-02-15T10:01:39;19.47;;;11.70;;
6424;SDS011;12193;42.642;23.384;2023-02-15T10:04:34;22.63;;;11.93;;
6424;SDS011;12193;42.642;23.384;2023-02-15T10:07:21;22.70;;;12.77;;
6424;SDS011;12193;42.642;23.384;2023-02-15T10:10:14;21.67;;;12.50;;
6424;SDS011;12193;42.642;23.384;2023-02-15T10:12:56;23.20;;;13.70;;
6424;SDS011;12193;42.642;23.384;2023-02-15T10:15:37;22.40;;;13.10;;
6424;SDS011;12193;42.642;23.384;2023-02-15T10:18:26;25.40;;;13.00;;
6424;SDS011;12193;42.642;23.384;2023-02-15T10:21:11;22.73;;;12.30;;
6424;SDS011;12193;42.642;23.384;2023-02-15T10:23:53;20.83;;;12.13;;
6424;SDS011;12193;42.642;23.384;2023-02-15T10:26:40;23.10;;;12.63;;
6424;SDS011;12193;42.642;23.384;2023-02-15T10:29:15;24.47;;;13.40;;
6424;SDS011;12193;42.642;23.384;2023-02-15T10:31:55;22.87;;;13.00;;
6424;SDS011;12193;42.642;23.384;2023-02-15T10:34:35;24.13;;;13.00;;
6424;SDS011;12193;42.642;23.384;2023-02-15T10:37:16;23.20;;;13.23;;
6424;SDS011;12193;42.642;23.384;2023-02-15T10:40:05;23.70;;;13.63;;
6424;SDS011;12193;42.642;23.384;2023-02-15T10:42:41;24.70;;;13.50;;
6424;SDS011;12193;42.642;23.384;2023-02-15T10:45:20;26.37;;;13.60;;
6424;SDS011;12193;42.642;23.384;2023-02-15T10:47:59;24.67;;;13.33;;
6424;SDS011;12193;42.642;23.384;2023-02-15T10:50:44;21.77;;;12.57;;
6424;SDS011;12193;42.642;23.384;2023-02-15T10:56:16;22.33;;;13.07;;
6424;SDS011;12193;42.642;23.384;2023-02-15T10:58:56;22.80;;;12.47;;
6424;SDS011;12193;42.642;23.384;2023-02-15T11:01:37;21.80;;;12.77;;
6424;SDS011;12193;42.642;23.384;2023-02-15T11:04:30;22.33;;;12.93;;
6424;SDS011;12193;42.642;23.384;2023-02-15T11:07:09;27.13;;;13.70;;
6424;SDS011;12193;42.642;23.384;2023-02-15T11:09:47;23.80;;;13.40;;
6424;SDS011;12193;42.642;23.384;2023-02-15T11:12:22;28.17;;;15.00;;
6424;SDS011;12193;42.642;23.384;2023-02-15T11:14:55;26.03;;;14.00;;
6424;SDS011;12193;42.642;23.384;2023-02-15T11:17:30;23.23;;;13.20;;
6424;SDS011;12193;42.642;23.384;2023-02-15T11:20:07;23.47;;;12.57;;
6424;SDS011;12193;42.642;23.384;2023-02-15T11:22:44;24.03;;;12.93;;
6424;SDS011;12193;42.642;23.384;2023-02-15T11:25:22;21.10;;;12.10;;
6424;SDS011;12193;42.642;23.384;2023-02-15T11:27:53;26.30;;;14.07;;
6424;SDS011;12193;42.642;23.384;2023-02-15T11:30:25;27.33;;;14.43;;
6424;SDS011;12193;42.642;23.384;2023-02-15T11:33:12;25.60;;;14.40;;
6424;SDS011;12193;42.642;23.384;2023-02-15T11:35:49;25.97;;;14.37;;
6424;SDS011;12193;42.642;23.384;2023-02-15T11:38:22;29.30;;;14.63;;
6424;SDS011;12193;42.642;23.384;2023-02-15T11:40:59;25.33;;;14.10;;
6424;SDS011;12193;42.642;23.384;2023-02-15T11:43:32;28.00;;;15.60;;
6424;SDS011;12193;42.642;23.384;2023-02-15T11:46:05;26.00;;;14.30;;
6424;SDS011;12193;42.642;23.384;2023-02-15T11:48:39;26.13;;;14.27;;
6424;SDS011;12193;42.642;23.384;2023-02-15T11:51:09;22.17;;;13.53;;
6424;SDS011;12193;42.642;23.384;2023-02-15T11:53:42;24.27;;;13.57;;
6424;SDS011;12193;42.642;23.384;2023-02-15T11:56:17;27.00;;;14.97;;
6424;SDS011;12193;42.642;23.384;2023-02-15T11:58:49;25.33;;;14.03;;
6424;SDS011;12193;42.642;23.384;2023-02-15T12:01:24;26.93;;;15.13;;
6424;SDS011;12193;42.642;23.384;2023-02-15T12:03:59;26.40;;;15.10;;
6424;SDS011;12193;42.642;23.384;2023-02-15T12:06:37;27.27;;;14.27;;
6424;SDS011;12193;42.642;23.384;2023-02-15T12:09:16;24.97;;;14.30;;
6424;SDS011;12193;42.642;23.384;2023-02-15T12:11:52;25.57;;;14.83;;
6424;SDS011;12193;42.642;23.384;2023-02-15T12:14:21;27.00;;;15.07;;
6424;SDS011;12193;42.642;23.384;2023-02-15T12:16:51;28.63;;;14.40;;
6424;SDS011;12193;42.642;23.384;2023-02-15T12:19:27;25.63;;;15.20;;
6424;SDS011;12193;42.642;23.384;2023-02-15T12:22:00;25.90;;;14.17;;
6424;SDS011;12193;42.642;23.384;2023-02-15T12:24:32;26.30;;;14.13;;
6424;SDS011;12193;42.642;23.384;2023-02-15T12:27:13;25.27;;;15.00;;
6424;SDS011;12193;42.642;23.384;2023-02-15T12:29:47;24.30;;;14.57;;
6424;SDS011;12193;42.642;23.384;2023-02-15T12:32:19;27.53;;;15.20;;
6424;SDS011;12193;42.642;23.384;2023-02-15T12:34:53;29.57;;;16.37;;
6424;SDS011;12193;42.642;23.384;2023-02-15T12:37:29;26.43;;;14.40;;
6424;SDS011;12193;42.642;23.384;2023-02-15T12:40:10;32.57;;;16.03;;
6424;SDS011;12193;42.642;23.384;2023-02-15T12:42:52;29.40;;;15.67;;
6424;SDS011;12193;42.642;23.384;2023-02-15T12:45:23;29.33;;;16.00;;
6424;SDS011;12193;42.642;23.384;2023-02-15T12:48:07;31.77;;;15.70;;
6424;SDS011;12193;42.642;23.384;2023-02-15T12:50:38;28.97;;;15.73;;
6424;SDS011;12193;42.642;23.384;2023-02-15T12:53:13;26.03;;;14.80;;
6424;SDS011;12193;42.642;23.384;2023-02-15T12:55:52;31.13;;;15.40;;
6424;SDS011;12193;42.642;23.384;2023-02-15T12:58:26;26.60;;;15.13;;
6424;SDS011;12193;42.642;23.384;2023-02-15T13:01:01;28.27;;;15.37;;
6424;SDS011;12193;42.642;23.384;2023-02-15T13:03:32;25.47;;;14.33;;
6424;SDS011;12193;42.642;23.384;2023-02-15T13:06:02;30.17;;;15.67;;
6424;SDS011;12193;42.642;23.384;2023-02-15T13:08:35;30.50;;;15.57;;
6424;SDS011;12193;42.642;23.384;2023-02-15T13:11:18;29.40;;;15.70;;
6424;SDS011;12193;42.642;23.384;2023-02-15T13:13:53;31.73;;;16.10;;
6424;SDS011;12193;42.642;23.384;2023-02-15T13:16:26;27.90;;;15.47;;
6424;SDS011;12193;42.642;23.384;2023-02-15T13:19:02;28.27;;;15.00;;
6424;SDS011;12193;42.642;23.384;2023-02-15T13:21:35;31.03;;;16.10;;
6424;SDS011;12193;42.642;23.384;2023-02-15T13:24:13;30.90;;;15.53;;
6424;SDS011;12193;42.642;23.384;2023-02-15T13:26:47;30.37;;;14.93;;
6424;SDS011;12193;42.642;23.384;2023-02-15T13:29:21;26.60;;;14.93;;
6424;SDS011;12193;42.642;23.384;2023-02-15T13:31:53;28.03;;;14.73;;
6424;SDS011;12193;42.642;23.384;2023-02-15T13:34:27;29.30;;;15.33;;
6424;SDS011;12193;42.642;23.384;2023-02-15T13:37:01;26.73;;;14.23;;
6424;SDS011;12193;42.642;23.384;2023-02-15T13:39:38;29.43;;;15.60;;
6424;SDS011;12193;42.642;23.384;2023-02-15T13:42:15;29.47;;;14.43;;
6424;SDS011;12193;42.642;23.384;2023-02-15T13:45:13;28.63;;;14.67;;
6424;SDS011;12193;42.642;23.384;2023-02-15T13:47:57;29.23;;;14.57;;
6424;SDS011;12193;42.642;23.384;2023-02-15T13:50:37;28.20;;;15.73;;
6424;SDS011;12193;42.642;23.384;2023-02-15T13:53:32;28.13;;;15.53;;
6424;SDS011;12193;42.642;23.384;2023-02-15T13:56:13;28.07;;;15.57;;
6424;SDS011;12193;42.642;23.384;2023-02-15T14:01:45;31.10;;;16.27;;
6424;SDS011;12193;42.642;23.384;2023-02-15T14:04:25;29.70;;;14.77;;
6424;SDS011;12193;42.642;23.384;2023-02-15T14:07:15;30.10;;;15.23;;
6424;SDS011;12193;42.642;23.384;2023-02-15T14:10:05;32.87;;;15.60;;
6424;SDS011;12193;42.642;23.384;2023-02-15T14:12:55;29.57;;;15.33;;
6424;SDS011;12193;42.642;23.384;2023-02-15T14:15:40;27.63;;;14.67;;
6424;SDS011;12193;42.642;23.384;2023-02-15T14:18:21;26.67;;;14.50;;
6424;SDS011;12193;42.642;23.384;2023-02-15T14:21:01;29.53;;;15.13;;
6424;SDS011;12193;42.642;23.384;2023-02-15T14:23:41;33.57;;;17.03;;
6424;SDS011;12193;42.642;23.384;2023-02-15T14:26:20;29.80;;;15.87;;
6424;SDS011;12193;42.642;23.384;2023-02-15T14:28:58;32.00;;;16.50;;
6424;SDS011;12193;42.642;23.384;2023-02-15T14:31:42;29.90;;;16.20;;
6424;SDS011;12193;42.642;23.384;2023-02-15T14:34:20;30.53;;;16.57;;
6424;SDS011;12193;42.642;23.384;2023-02-15T14:36:52;31.60;;;16.00;;
6424;SDS011;12193;42.642;23.384;2023-02-15T14:39:27;29.77;;;15.93;;
6424;SDS011;12193;42.642;23.384;2023-02-15T14:42:15;32.53;;;16.50;;
6424;SDS011;12193;42.642;23.384;2023-02-15T14:44:53;34.57;;;16.37;;
6424;SDS011;12193;42.642;23.384;2023-02-15T14:47:31;30.40;;;15.90;;
6424;SDS011;12193;42.642;23.384;2023-02-15T14:56:18;31.47;;;16.63;;
6424;SDS011;12193;42.642;23.384;2023-02-15T14:58:55;35.77;;;18.37;;
6424;SDS011;12193;42.642;23.384;2023-02-15T15:01:27;34.70;;;17.03;;
6424;SDS011;12193;42.642;23.384;2023-02-15T15:03:59;32.90;;;16.23;;
6424;SDS011;12193;42.642;23.384;2023-02-15T15:06:34;35.50;;;16.73;;
6424;SDS011;12193;42.642;23.384;2023-02-15T15:09:13;33.37;;;16.93;;
6424;SDS011;12193;42.642;23.384;2023-02-15T15:11:49;33.43;;;17.63;;
6424;SDS011;12193;42.642;23.384;2023-02-15T15:17:12;37.93;;;16.57;;
6424;SDS011;12193;42.642;23.384;2023-02-15T15:20:05;35.00;;;16.53;;
6424;SDS011;12193;42.642;23.384;2023-02-15T15:22:40;36.70;;;16.90;;
6424;SDS011;12193;42.642;23.384;2023-02-15T15:31:15;35.77;;;17.30;;
6424;SDS011;12193;42.642;23.384;2023-02-15T15:43:24;37.07;;;17.63;;
6424;SDS011;12193;42.642;23.384;2023-02-15T15:46:05;37.70;;;18.43;;
6424;SDS011;12193;42.642;23.384;2023-02-15T15:48:53;35.37;;;17.43;;
6424;SDS011;12193;42.642;23.384;2023-02-15T15:51:24;39.37;;;18.13;;
6424;SDS011;12193;42.642;23.384;2023-02-15T15:53:58;39.03;;;17.70;;
6424;SDS011;12193;42.642;23.384;2023-02-15T15:56:31;31.17;;;16.60;;
6424;SDS011;12193;42.642;23.384;2023-02-15T15:59:04;34.63;;;16.83;;
6424;SDS011;12193;42.642;23.384;2023-02-15T16:01:39;33.27;;;16.37;;
6424;SDS011;12193;42.642;23.384;2023-02-15T16:04:11;33.63;;;16.27;;
6424;SDS011;12193;42.642;23.384;2023-02-15T16:06:41;33.00;;;16.77;;
6424;SDS011;12193;42.642;23.384;2023-02-15T16:09:11;34.13;;;17.00;;
6424;SDS011;12193;42.642;23.384;2023-02-15T16:11:44;36.93;;;18.33;;
6424;SDS011;12193;42.642;23.384;2023-02-15T16:14:16;35.80;;;17.70;;
6424;SDS011;12193;42.642;23.384;2023-02-15T16:16:53;32.50;;;17.37;;
6424;SDS011;12193;42.642;23.384;2023-02-15T16:19:26;36.57;;;17.53;;
6424;SDS011;12193;42.642;23.384;2023-02-15T16:21:59;36.10;;;18.17;;
6424;SDS011;12193;42.642;23.384;2023-02-15T16:27:36;32.33;;;16.77;;
6424;SDS011;12193;42.642;23.384;2023-02-15T16:30:17;35.33;;;17.47;;
6424;SDS011;12193;42.642;23.384;2023-02-15T16:32:51;37.13;;;18.17;;
6424;SDS011;12193;42.642;23.384;2023-02-15T16:35:21;40.77;;;18.03;;
6424;SDS011;12193;42.642;23.384;2023-02-15T16:37:52;33.57;;;17.17;;
6424;SDS011;12193;42.642;23.384;2023-02-15T16:40:31;40.50;;;18.77;;
6424;SDS011;12193;42.642;23.384;2023-02-15T16:43:10;40.03;;;19.37;;
6424;SDS011;12193;42.642;23.384;2023-02-15T16:45:43;41.67;;;19.53;;
6424;SDS011;12193;42.642;23.384;2023-02-15T16:48:16;39.03;;;20.20;;
6424;SDS011;12193;42.642;23.384;2023-02-15T16:50:50;42.30;;;19.73;;
6424;SDS011;12193;42.642;23.384;2023-02-15T16:53:22;40.00;;;20.37;;
6424;SDS011;12193;42.642;23.384;2023-02-15T16:55:53;44.30;;;19.87;;
6424;SDS011;12193;42.642;23.384;2023-02-15T16:58:26;45.87;;;20.47;;
6424;SDS011;12193;42.642;23.384;2023-02-15T17:00:59;41.67;;;19.87;;
6424;SDS011;12193;42.642;23.384;2023-02-15T17:03:33;44.80;;;19.30;;
6424;SDS011;12193;42.642;23.384;2023-02-15T17:06:03;42.80;;;20.90;;
6424;SDS011;12193;42.642;23.384;2023-02-15T17:08:48;38.63;;;19.27;;
6424;SDS011;12193;42.642;23.384;2023-02-15T17:11:17;40.97;;;19.90;;
6424;SDS011;12193;42.642;23.384;2023-02-15T17:16:43;39.53;;;18.30;;
6424;SDS011;12193;42.642;23.384;2023-02-15T17:19:18;41.23;;;19.63;;
6424;SDS011;12193;42.642;23.384;2023-02-15T17:21:52;38.70;;;18.60;;
6424;SDS011;12193;42.642;23.384;2023-02-15T17:24:27;40.33;;;19.70;;
6424;SDS011;12193;42.642;23.384;2023-02-15T17:27:03;37.77;;;18.20;;
6424;SDS011;12193;42.642;23.384;2023-02-15T17:29:36;37.03;;;17.93;;
6424;SDS011;12193;42.642;23.384;2023-02-15T17:32:12;41.50;;;19.43;;
6424;SDS011;12193;42.642;23.384;2023-02-15T17:37:44;40.63;;;20.37;;
6424;SDS011;12193;42.642;23.384;2023-02-15T17:40:18;42.80;;;19.87;;
6424;SDS011;12193;42.642;23.384;2023-02-15T17:42:52;42.60;;;20.00;;
6424;SDS011;12193;42.642;23.384;2023-02-15T17:45:22;38.90;;;19.17;;
6424;SDS011;12193;42.642;23.384;2023-02-15T17:47:54;41.30;;;19.27;;
6424;SDS011;12193;42.642;23.384;2023-02-15T17:50:27;38.27;;;18.77;;
6424;SDS011;12193;42.642;23.384;2023-02-15T17:52:57;41.23;;;19.73;;
6424;SDS011;12193;42.642;23.384;2023-02-15T17:55:27;42.20;;;19.53;;
6424;SDS011;12193;42.642;23.384;2023-02-15T17:58:01;38.70;;;19.80;;
6424;SDS011;12193;42.642;23.384;2023-02-15T18:00:32;41.87;;;20.80;;
6424;SDS011;12193;42.642;23.384;2023-02-15T18:03:15;38.20;;;18.60;;
6424;SDS011;12193;42.642;23.384;2023-02-15T18:06:00;39.63;;;18.70;;
6424;SDS011;12193;42.642;23.384;2023-02-15T18:08:42;50.70;;;19.73;;
6424;SDS011;12193;42.642;23.384;2023-02-15T18:11:24;38.80;;;19.40;;
6424;SDS011;12193;42.642;23.384;2023-02-15T18:14:04;38.10;;;18.53;;
6424;SDS011;12193;42.642;23.384;2023-02-15T18:16:35;40.03;;;19.33;;
6424;SDS011;12193;42.642;23.384;2023-02-15T18:19:09;46.30;;;18.90;;
6424;SDS011;12193;42.642;23.384;2023-02-15T18:21:46;38.37;;;19.37;;
6424;SDS011;12193;42.642;23.384;2023-02-15T18:24:17;39.40;;;19.40;;
6424;SDS011;12193;42.642;23.384;2023-02-15T18:26:49;37.03;;;18.17;;
6424;SDS011;12193;42.642;23.384;2023-02-15T18:29:19;42.77;;;20.20;;
6424;SDS011;12193;42.642;23.384;2023-02-15T18:31:50;39.33;;;18.67;;
6424;SDS011;12193;42.642;23.384;2023-02-15T18:34:22;36.43;;;19.17;;
6424;SDS011;12193;42.642;23.384;2023-02-15T18:36:57;46.03;;;20.27;;
6424;SDS011;12193;42.642;23.384;2023-02-15T18:39:32;43.93;;;19.83;;
6424;SDS011;12193;42.642;23.384;2023-02-15T18:42:05;39.10;;;19.93;;
6424;SDS011;12193;42.642;23.384;2023-02-15T18:44:42;44.37;;;21.40;;
6424;SDS011;12193;42.642;23.384;2023-02-15T18:47:11;46.37;;;20.90;;